Time;durP1;ratioP1;P1;durP2;ratioP2;P2;SDS_P1;SDS_P2;PMS_P1;PMS_P2;Temp;Humidity;BMP_temperature;BMP_pressure;BME280_temperature;BME280_humidity;BME280_pressure;Samples;Min_cycle;Max_cycle;Signal;HPM_P1;HPM_P2
2021/05/08 00:01:45;;;;;;;11.10;6.93;;;;;;;8.37;48.44;101746.16;4897180;28;124127;-69
2021/05/08 00:04:13;;;;;;;9.57;7.15;;;;;;;8.34;48.76;101754.16;4897297;28;118935;-69
2021/05/08 00:06:40;;;;;;;9.15;6.90;;;;;;;8.31;48.33;101756.88;4905173;28;118765;-70
2021/05/08 00:09:07;;;;;;;15.77;8.00;;;;;;;8.29;48.35;101756.03;4894812;28;124742;-70
2021/05/08 00:11:35;;;;;;;14.05;8.48;;;;;;;8.24;49.00;101757.88;4898692;28;123854;-72
2021/05/08 00:14:02;;;;;;;12.88;8.32;;;;;;;8.21;48.64;101755.28;4901145;28;120380;-70
2021/05/08 00:16:29;;;;;;;12.63;8.88;;;;;;;8.18;49.08;101758.03;4902902;28;119983;-71
2021/05/08 00:18:56;;;;;;;12.13;8.02;;;;;;;8.16;48.98;101754.53;4899872;28;124052;-71
2021/05/08 00:21:22;;;;;;;10.02;8.00;;;;;;;8.13;49.10;101751.97;4907634;28;123133;-71
2021/05/08 00:23:49;;;;;;;15.43;8.02;;;;;;;8.11;49.27;101751.13;4897539;28;118211;-72
2021/05/08 00:26:15;;;;;;;9.90;7.93;;;;;;;8.10;49.38;101749.38;4897222;28;118918;-71
2021/05/08 00:28:44;;;;;;;10.98;8.00;;;;;;;8.07;49.30;101744.16;4895943;28;124572;-72
2021/05/08 00:31:10;;;;;;;13.13;8.15;;;;;;;8.05;49.52;101736.28;4901125;28;123785;-71
2021/05/08 00:33:37;;;;;;;22.95;9.00;;;;;;;8.02;49.27;101735.47;4904146;28;119197;-71
2021/05/08 00:36:05;;;;;;;17.48;8.38;;;;;;;7.97;49.61;101728.53;4891001;28;118276;-70
2021/05/08 00:38:32;;;;;;;13.13;8.90;;;;;;;7.94;49.57;101731.22;4908329;28;123099;-70
2021/05/08 00:40:59;;;;;;;11.80;8.90;;;;;;;7.88;49.41;101733.97;4892703;28;123030;-70
2021/05/08 00:43:26;;;;;;;17.20;9.35;;;;;;;7.85;49.58;101727.88;4910000;28;118514;-71
2021/05/08 00:45:53;;;;;;;21.10;9.60;;;;;;;7.82;50.06;101734.09;4901639;28;119194;-71
2021/05/08 00:48:19;;;;;;;21.65;9.23;;;;;;;7.78;50.10;101721.88;4902493;28;124780;-71
2021/05/08 00:50:49;;;;;;;18.27;9.00;;;;;;;7.77;49.91;101725.41;4908678;28;123255;-72
2021/05/08 00:53:16;;;;;;;14.90;9.60;;;;;;;7.75;50.19;101727.22;4899982;28;119364;-72
2021/05/08 00:55:43;;;;;;;12.18;8.70;;;;;;;7.73;50.33;101719.31;4904734;28;119102;-71
2021/05/08 00:58:10;;;;;;;16.25;9.30;;;;;;;7.74;50.59;101720.19;4898750;28;123524;-71
2021/05/08 01:00:37;;;;;;;14.95;9.50;;;;;;;7.74;50.49;101712.25;4903004;28;123767;-71
2021/05/08 01:03:07;;;;;;;12.85;9.30;;;;;;;7.75;50.40;101706.09;4896780;28;119742;-71
2021/05/08 01:05:36;;;;;;;13.30;9.00;;;;;;;7.76;50.78;101710.47;4908015;28;119487;-71
2021/05/08 01:08:08;;;;;;;14.48;9.10;;;;;;;7.78;50.99;101711.34;4907091;28;123846;-72
2021/05/08 01:10:35;;;;;;;15.05;9.50;;;;;;;7.79;50.65;101702.50;4911875;28;123242;-70
2021/05/08 01:13:03;;;;;;;14.65;9.07;;;;;;;7.81;50.72;101700.72;4897059;28;119277;-70
2021/05/08 01:15:30;;;;;;;13.25;9.27;;;;;;;7.84;51.14;101699.81;4897412;28;119140;-70
2021/05/08 01:17:57;;;;;;;17.35;10.15;;;;;;;7.86;50.97;101704.13;4902795;28;124539;-71
2021/05/08 01:20:25;;;;;;;18.50;10.70;;;;;;;7.90;51.20;101697.03;4897524;28;123513;-70
2021/05/08 01:22:55;;;;;;;19.15;10.27;;;;;;;7.93;51.34;101705.75;4910482;28;118396;-70
2021/05/08 01:25:24;;;;;;;17.60;9.70;;;;;;;7.97;51.20;101691.59;4900782;28;120032;-71
2021/05/08 01:27:55;;;;;;;17.10;9.93;;;;;;;7.99;51.01;101700.34;4912454;28;123166;-70
2021/05/08 01:30:26;;;;;;;18.75;10.63;;;;;;;8.04;51.49;101696.72;4910464;28;123492;-70
2021/05/08 01:32:54;;;;;;;19.00;10.85;;;;;;;8.09;51.35;101694.88;4894192;28;119468;-71
2021/05/08 01:35:23;;;;;;;15.00;10.00;;;;;;;8.14;51.54;101704.44;4895473;28;118294;-70
2021/05/08 01:37:50;;;;;;;16.42;10.63;;;;;;;8.21;51.50;101702.50;4902708;28;125015;-70
2021/05/08 01:40:18;;;;;;;14.52;10.15;;;;;;;8.27;51.46;101698.88;4894911;28;124093;-70
2021/05/08 01:42:48;;;;;;;15.55;9.98;;;;;;;8.32;51.25;101700.50;4907921;28;118545;-70
2021/05/08 01:45:18;;;;;;;15.57;10.23;;;;;;;8.37;51.15;101701.28;4892734;28;118763;-70
2021/05/08 01:47:46;;;;;;;14.88;10.00;;;;;;;8.43;51.32;101699.47;4899189;28;124780;-70
2021/05/08 01:50:16;;;;;;;14.38;10.15;;;;;;;8.48;50.98;101697.59;4888815;28;122692;-69
2021/05/08 01:52:44;;;;;;;15.55;10.70;;;;;;;8.51;50.91;101692.22;4894215;28;120425;-70
2021/05/08 01:55:15;;;;;;;15.80;10.35;;;;;;;8.56;51.26;101690.34;4895991;28;119906;-70
2021/05/08 01:57:47;;;;;;;12.93;10.10;;;;;;;8.60;51.05;101686.75;4907493;28;123239;-70
2021/05/08 02:00:23;;;;;;;16.05;10.40;;;;;;;8.65;51.13;101682.22;4894758;28;123674;-70
2021/05/08 02:02:53;;;;;;;14.65;10.25;;;;;;;8.68;50.96;101679.53;4893711;28;119003;-70
2021/05/08 02:05:29;;;;;;;15.30;9.73;;;;;;;8.71;51.00;101676.78;4894276;28;121698;-70
2021/05/08 02:08:02;;;;;;;13.20;10.05;;;;;;;8.75;50.91;101673.16;4904833;28;127417;-71
2021/05/08 02:10:30;;;;;;;14.43;10.27;;;;;;;8.75;50.99;101670.53;4893882;28;124027;-71
2021/05/08 02:12:58;;;;;;;14.25;9.88;;;;;;;8.77;50.81;101668.72;4892638;28;119735;-71
2021/05/08 02:15:26;;;;;;;15.60;10.18;;;;;;;8.78;51.08;101659.03;4899579;28;119353;-70
2021/05/08 02:17:52;;;;;;;15.18;10.57;;;;;;;8.81;50.80;101668.66;4902108;28;124045;-70
2021/05/08 02:20:23;;;;;;;13.98;10.38;;;;;;;8.82;50.67;101665.13;4897525;28;124232;-71
2021/05/08 02:22:51;;;;;;;15.10;10.18;;;;;;;8.85;50.57;101662.38;4911712;28;119592;-71
2021/05/08 02:25:18;;;;;;;14.77;10.50;;;;;;;8.87;50.81;101657.91;4913330;23;122390;-66
2021/05/08 02:27:46;;;;;;;14.05;10.10;;;;;;;8.90;50.83;101660.50;4873383;28;123912;-67
2021/05/08 02:30:17;;;;;;;14.90;9.98;;;;;;;8.92;51.19;101659.53;4876445;28;124113;-67
2021/05/08 02:32:45;;;;;;;13.98;10.02;;;;;;;8.95;51.03;101655.97;4863820;28;118283;-66
2021/05/08 02:35:14;;;;;;;14.63;10.00;;;;;;;8.98;50.99;101645.31;4881508;28;119835;-66
2021/05/08 02:37:41;;;;;;;17.00;10.63;;;;;;;9.02;51.19;101643.47;4885316;28;124075;-66
2021/05/08 02:40:15;;;;;;;15.57;9.98;;;;;;;9.04;51.08;101634.59;4864937;28;123238;-67
2021/05/08 02:42:42;;;;;;;16.00;9.70;;;;;;;9.07;50.77;101645.06;4884104;28;121226;-67
2021/05/08 02:45:11;;;;;;;12.27;10.00;;;;;;;9.09;50.91;101632.69;4864654;28;119439;-67
2021/05/08 02:47:44;;;;;;;13.63;9.48;;;;;;;9.11;50.83;101643.22;4869881;28;124051;-67
2021/05/08 02:50:12;;;;;;;12.65;9.25;;;;;;;9.13;50.99;101639.63;4869227;28;122984;-67
2021/05/08 02:52:40;;;;;;;14.55;10.30;;;;;;;9.13;50.49;101633.47;4866826;28;118543;-67
2021/05/08 02:55:08;;;;;;;13.82;9.63;;;;;;;9.13;50.51;101628.19;4870354;28;118649;-68
2021/05/08 02:57:35;;;;;;;12.20;9.43;;;;;;;9.13;50.42;101631.69;4880246;28;124080;-68
2021/05/08 03:00:09;;;;;;;13.73;9.82;;;;;;;9.12;50.67;101622.06;4882506;28;123398;-67
2021/05/08 03:02:36;;;;;;;14.27;10.07;;;;;;;9.12;50.54;101622.06;4881144;28;119650;-67
2021/05/08 03:05:05;;;;;;;13.95;9.65;;;;;;;9.12;50.55;101618.56;4885678;28;119366;-67
2021/05/08 03:07:31;;;;;;;15.85;9.88;;;;;;;9.10;50.49;101613.31;4862372;28;123912;-67
2021/05/08 03:09:58;;;;;;;16.30;9.98;;;;;;;9.09;50.49;101616.84;4864325;28;123521;-67
2021/05/08 03:12:25;;;;;;;12.43;9.98;;;;;;;9.08;50.82;101615.13;4877759;28;119633;-67
2021/05/08 03:14:54;;;;;;;12.43;10.23;;;;;;;9.09;50.80;101614.19;4880616;28;118251;-67
2021/05/08 03:17:21;;;;;;;15.57;10.02;;;;;;;9.07;50.54;101616.00;4880081;28;123266;-67
2021/05/08 03:19:52;;;;;;;12.88;9.80;;;;;;;9.06;50.63;101619.56;4877406;28;123046;-68
2021/05/08 03:22:19;;;;;;;15.82;9.88;;;;;;;9.03;50.66;101601.16;4881318;28;118445;-67
2021/05/08 03:24:47;;;;;;;16.65;10.50;;;;;;;9.02;50.50;101599.41;4885025;28;119410;-67
2021/05/08 03:27:14;;;;;;;13.55;10.13;;;;;;;9.00;50.62;101601.22;4882167;28;124756;-67
2021/05/08 03:29:42;;;;;;;15.60;9.98;;;;;;;8.99;50.56;101599.50;4881987;28;124752;-68
2021/05/08 03:32:09;;;;;;;17.35;9.90;;;;;;;8.97;50.53;101596.03;4880687;28;120695;-68
2021/05/08 03:34:41;;;;;;;14.07;10.18;;;;;;;8.94;50.79;101586.41;4883717;28;120003;-68
2021/05/08 03:37:08;;;;;;;14.43;9.93;;;;;;;8.93;50.66;101589.09;4879889;28;125072;-68
2021/05/08 03:39:36;;;;;;;17.17;10.95;;;;;;;8.90;50.63;101589.16;4879063;28;122731;-68
2021/05/08 03:42:03;;;;;;;17.45;10.75;;;;;;;8.89;50.66;101592.72;4879971;28;119249;-68
2021/05/08 03:44:30;;;;;;;16.05;9.88;;;;;;;8.85;51.10;101585.78;4875419;28;119872;-68
2021/05/08 03:46:57;;;;;;;16.95;10.15;;;;;;;8.84;50.71;101584.06;4883103;28;123981;-68
2021/05/08 03:49:24;;;;;;;14.43;10.30;;;;;;;8.82;50.75;101580.59;4878017;28;123863;-68
2021/05/08 03:51:58;;;;;;;19.23;10.95;;;;;;;8.79;51.05;101575.38;4870467;28;119443;-68
2021/05/08 03:54:24;;;;;;;16.23;10.25;;;;;;;8.75;50.83;101571.94;4878891;28;117992;-69
2021/05/08 03:56:51;;;;;;;17.95;10.73;;;;;;;8.72;51.01;101569.38;4866962;28;123230;-69
2021/05/08 03:59:18;;;;;;;15.43;10.25;;;;;;;8.68;50.66;101573.88;4878282;28;124168;-69
2021/05/08 04:01:44;;;;;;;22.08;10.90;;;;;;;8.67;50.90;101587.97;4875491;28;118571;-68
2021/05/08 04:04:11;;;;;;;17.25;11.07;;;;;;;8.66;50.94;101580.97;4881279;28;119786;-69
2021/05/08 04:06:38;;;;;;;15.80;10.13;;;;;;;8.65;50.99;101573.97;4879228;28;123087;-68
2021/05/08 04:09:07;;;;;;;15.95;10.30;;;;;;;8.65;51.06;101573.97;4881268;28;97185;-69
2021/05/08 04:11:34;;;;;;;16.63;10.18;;;;;;;8.63;50.82;101562.56;4882860;28;119312;-69
2021/05/08 04:14:02;;;;;;;16.02;11.07;;;;;;;8.63;50.86;101575.78;4871736;28;118763;-69
2021/05/08 04:16:31;;;;;;;14.98;10.95;;;;;;;8.61;50.68;101567.03;4883126;28;122872;-69
2021/05/08 04:18:59;;;;;;;15.60;10.55;;;;;;;8.59;50.98;101566.19;4876964;28;124003;-69
2021/05/08 04:21:26;;;;;;;19.88;11.55;;;;;;;8.58;51.09;101567.09;4884531;28;120695;-69
2021/05/08 04:23:52;;;;;;;17.92;10.70;;;;;;;8.55;50.91;101568.03;4880832;28;119988;-69
2021/05/08 04:26:19;;;;;;;15.95;10.35;;;;;;;8.54;51.10;101565.44;4870994;28;123641;-69
2021/05/08 04:28:46;;;;;;;24.58;11.35;;;;;;;8.53;51.19;101569.84;4883867;28;123967;-69
2021/05/08 04:31:13;;;;;;;16.83;10.32;;;;;;;8.51;51.17;101566.41;4862711;28;119794;-69
2021/05/08 04:33:39;;;;;;;20.13;10.52;;;;;;;8.52;51.20;101564.63;4880013;28;119013;-69
2021/05/08 04:36:06;;;;;;;20.95;10.85;;;;;;;8.55;51.38;101567.16;4868993;28;123055;-69
2021/05/08 04:38:33;;;;;;;17.95;10.15;;;;;;;8.56;51.26;101559.19;4884536;28;124284;-69
2021/05/08 04:40:59;;;;;;;14.60;10.73;;;;;;;8.61;51.49;101561.75;4878614;28;119747;-68
2021/05/08 04:43:26;;;;;;;17.75;9.75;;;;;;;8.64;51.69;101551.09;4881669;28;119463;-68
2021/05/08 04:45:53;;;;;;;23.83;10.73;;;;;;;8.70;51.79;101550.94;4863165;28;123067;-68
2021/05/08 04:48:27;;;;;;;15.52;9.25;;;;;;;8.73;51.41;101548.22;4877954;28;123959;-68
2021/05/08 04:50:54;;;;;;;18.98;10.18;;;;;;;8.79;51.66;101544.53;4879099;28;119842;-68
2021/05/08 04:53:21;;;;;;;17.15;9.73;;;;;;;8.86;51.48;101545.25;4869144;28;118240;-68
2021/05/08 04:55:48;;;;;;;12.73;9.13;;;;;;;8.91;51.44;101543.34;4865624;28;124127;-68
2021/05/08 04:58:15;;;;;;;12.00;8.88;;;;;;;8.97;51.46;101543.19;4879374;28;124265;-68
2021/05/08 05:00:42;;;;;;;14.88;9.45;;;;;;;9.01;51.46;101539.56;4879668;28;119651;-68
2021/05/08 05:03:09;;;;;;;12.55;8.82;;;;;;;9.06;51.36;101537.66;4883647;28;119091;-68
2021/05/08 05:05:36;;;;;;;13.82;9.07;;;;;;;9.12;51.07;101537.50;4875628;28;124524;-68
2021/05/08 05:08:03;;;;;;;14.52;9.30;;;;;;;9.18;50.97;101535.59;4878707;28;123922;-68
2021/05/08 05:10:29;;;;;;;14.43;9.85;;;;;;;9.24;50.99;101535.41;4879668;28;120789;-68
2021/05/08 05:12:59;;;;;;;14.20;9.50;;;;;;;9.31;51.09;101536.97;4861320;28;120306;-68
2021/05/08 05:15:27;;;;;;;12.05;8.73;;;;;;;9.39;50.92;101534.09;4883110;28;124033;-68
2021/05/08 05:17:54;;;;;;;14.18;9.32;;;;;;;9.47;50.95;101532.94;4862818;28;123245;-68
2021/05/08 05:20:22;;;;;;;11.88;8.45;;;;;;;9.53;50.90;101537.19;4881404;28;119520;-68
2021/05/08 05:22:49;;;;;;;13.60;9.10;;;;;;;9.61;51.03;101534.34;4880701;28;119081;-68
2021/05/08 05:25:16;;;;;;;13.85;9.23;;;;;;;9.69;50.68;101532.34;4880442;28;124332;-68
2021/05/08 05:27:42;;;;;;;17.98;9.50;;;;;;;9.75;50.53;101532.13;4864795;28;122987;-68
2021/05/08 05:30:10;;;;;;;15.32;9.38;;;;;;;9.81;50.70;101531.09;4873814;28;119404;-67
2021/05/08 05:32:37;;;;;;;17.30;9.63;;;;;;;9.88;50.25;101532.63;4876252;28;119396;-67
2021/05/08 05:35:05;;;;;;;15.05;9.02;;;;;;;9.98;50.54;101533.19;4860662;28;124225;-66
2021/05/08 05:37:31;;;;;;;11.57;8.05;;;;;;;10.04;50.15;101533.88;4881702;28;123649;-66
2021/05/08 05:39:58;;;;;;;14.98;8.98;;;;;;;10.12;49.89;101531.00;4876104;28;118634;-66
2021/05/08 05:42:24;;;;;;;11.20;9.57;;;;;;;10.19;49.69;101532.53;4880648;28;118066;-66
2021/05/08 05:44:51;;;;;;;16.17;9.23;;;;;;;10.24;49.93;101538.53;4863076;28;123399;-66
2021/05/08 05:47:22;;;;;;;14.52;9.20;;;;;;;10.32;49.87;101539.19;4880874;28;122583;-66
2021/05/08 05:49:52;;;;;;;15.30;9.27;;;;;;;10.42;49.59;101549.47;4874324;28;119709;-66
2021/05/08 05:52:20;;;;;;;13.25;9.07;;;;;;;10.50;49.77;101531.53;4875733;28;119291;-67
2021/05/08 05:54:49;;;;;;;14.18;9.10;;;;;;;10.56;49.16;101531.34;4881692;28;123628;-67
2021/05/08 05:57:16;;;;;;;15.13;9.10;;;;;;;10.63;49.50;101537.28;4881141;28;123882;-67
2021/05/08 05:59:43;;;;;;;12.15;9.07;;;;;;;10.68;49.09;101541.53;4876139;28;121252;-67
2021/05/08 06:02:11;;;;;;;14.02;9.25;;;;;;;10.76;49.28;101533.31;4863364;28;119249;-66
2021/05/08 06:04:38;;;;;;;12.07;9.30;;;;;;;10.85;49.30;101548.00;4876151;28;124080;-66
2021/05/08 06:07:05;;;;;;;12.65;9.02;;;;;;;10.94;49.37;101547.69;4878582;28;124196;-67
2021/05/08 06:09:32;;;;;;;12.50;8.20;;;;;;;11.02;49.02;101544.75;4882222;28;119704;-67
2021/05/08 06:11:58;;;;;;;11.82;9.00;;;;;;;11.11;49.15;101541.78;4880735;28;118101;-67
2021/05/08 06:14:28;;;;;;;13.27;9.13;;;;;;;11.20;48.77;101538.78;4863135;28;123098;-68
2021/05/08 06:16:56;;;;;;;13.18;8.68;;;;;;;11.29;49.03;101537.59;4880497;28;123597;-67
2021/05/08 06:19:24;;;;;;;15.70;9.23;;;;;;;11.37;48.69;101535.53;4880146;28;119817;-67
2021/05/08 06:21:52;;;;;;;11.60;8.98;;;;;;;11.46;48.76;101529.88;4872574;28;119760;-68
2021/05/08 06:24:18;;;;;;;12.98;9.30;;;;;;;11.56;48.42;101532.19;4860706;28;124085;-66
2021/05/08 06:26:45;;;;;;;15.27;9.38;;;;;;;11.62;48.63;101532.84;4885267;28;125262;-67
2021/05/08 06:29:12;;;;;;;14.60;9.65;;;;;;;11.69;48.38;101530.78;4864012;28;119318;-67
2021/05/08 06:31:38;;;;;;;15.45;9.25;;;;;;;11.75;48.46;101530.53;4869959;28;118470;-67
2021/05/08 06:34:05;;;;;;;12.98;9.77;;;;;;;11.82;48.30;101529.38;4883152;28;124277;-67
2021/05/08 06:36:32;;;;;;;14.38;10.32;;;;;;;11.90;48.43;101522.94;4885916;28;124153;-68
2021/05/08 06:38:59;;;;;;;13.13;8.93;;;;;;;11.96;48.15;101512.97;4871746;28;118626;-67
2021/05/08 06:41:25;;;;;;;14.85;9.77;;;;;;;12.04;48.12;101520.63;4884537;28;119257;-67
2021/05/08 06:43:52;;;;;;;12.25;8.75;;;;;;;12.10;47.64;101509.75;4883294;28;123430;-67
2021/05/08 06:46:19;;;;;;;13.38;8.75;;;;;;;12.14;47.47;101500.72;4879271;28;124687;-67
2021/05/08 06:48:46;;;;;;;14.13;9.73;;;;;;;12.20;47.76;101511.06;4879160;28;120711;-67
2021/05/08 06:51:13;;;;;;;13.02;9.02;;;;;;;12.26;47.52;101505.53;4882623;28;119920;-67
2021/05/08 06:53:40;;;;;;;14.38;9.23;;;;;;;12.33;47.70;101497.31;4877221;28;124200;-68
2021/05/08 06:56:07;;;;;;;10.77;8.18;;;;;;;12.41;47.50;101503.16;4856384;28;123127;-67
2021/05/08 06:58:34;;;;;;;13.18;9.30;;;;;;;12.48;47.27;101498.44;4883447;28;120055;-66
2021/05/08 07:01:02;;;;;;;14.57;8.88;;;;;;;12.53;47.21;101492.00;4868879;28;118459;-67
2021/05/08 07:03:28;;;;;;;13.52;8.88;;;;;;;12.60;47.05;101493.47;4879051;28;124924;-70
2021/05/08 07:05:55;;;;;;;11.13;8.88;;;;;;;12.66;46.93;101497.66;4877321;28;123583;-67
2021/05/08 07:08:21;;;;;;;12.23;8.70;;;;;;;12.74;46.92;101489.34;4863849;28;119337;-68
2021/05/08 07:10:50;;;;;;;11.98;8.18;;;;;;;12.81;46.87;101490.81;4884757;28;119134;-68
2021/05/08 07:13:17;;;;;;;10.00;7.75;;;;;;;12.86;46.64;101483.47;4883962;28;125058;-68
2021/05/08 07:15:54;;;;;;;13.40;8.45;;;;;;;12.93;46.76;101479.63;4870416;28;123113;-68
2021/05/08 07:18:25;;;;;;;13.23;8.32;;;;;;;13.02;46.64;101487.19;4886522;28;119842;-68
2021/05/08 07:20:53;;;;;;;12.68;7.90;;;;;;;13.13;46.57;101480.50;4862256;28;117739;-68
2021/05/08 07:23:20;;;;;;;14.65;8.35;;;;;;;13.21;46.37;101479.25;4884406;28;123929;-67
2021/05/08 07:25:47;;;;;;;15.95;7.78;;;;;;;13.30;46.33;101478.00;4884509;28;123982;-68
2021/05/08 07:28:17;;;;;;;10.80;7.57;;;;;;;13.38;46.17;101473.16;4889408;28;119628;-68
2021/05/08 07:30:46;;;;;;;14.25;7.72;;;;;;;13.48;46.16;101470.09;4877867;28;119307;-68
2021/05/08 07:33:14;;;;;;;15.23;7.20;;;;;;;13.57;45.93;101481.16;4886553;28;124356;-68
2021/05/08 07:35:42;;;;;;;11.82;7.30;;;;;;;13.67;45.66;101473.59;4891976;28;123768;-68
2021/05/08 07:38:08;;;;;;;10.93;7.15;;;;;;;13.76;45.37;101475.81;4873288;28;120038;-68
2021/05/08 07:40:39;;;;;;;11.68;6.90;;;;;;;13.83;45.36;101461.28;4879354;28;119472;-68
2021/05/08 07:43:08;;;;;;;13.68;6.40;;;;;;;13.93;45.23;101466.16;4887015;28;123490;-68
2021/05/08 07:45:36;;;;;;;10.80;6.47;;;;;;;14.00;45.10;101462.25;4872225;28;124042;-68
2021/05/08 07:48:03;;;;;;;8.27;6.13;;;;;;;14.09;44.81;101456.47;4888998;28;119599;-68
2021/05/08 07:50:30;;;;;;;9.25;6.05;;;;;;;14.17;44.98;101454.28;4884586;28;119323;-68
2021/05/08 07:52:57;;;;;;;9.98;6.50;;;;;;;14.24;44.94;101452.16;4870974;28;124159;-68
2021/05/08 07:55:25;;;;;;;10.65;6.28;;;;;;;14.33;44.80;101445.50;4891040;28;124193;-68
2021/05/08 07:57:52;;;;;;;7.40;5.82;;;;;;;14.42;44.33;101447.69;4890841;28;120211;-68
2021/05/08 08:00:20;;;;;;;12.45;6.35;;;;;;;14.48;44.14;101452.69;4897557;28;119737;-68
2021/05/08 08:02:48;;;;;;;8.35;5.72;;;;;;;14.56;44.01;101449.63;4895981;28;124606;-68
2021/05/08 08:05:15;;;;;;;8.18;5.63;;;;;;;14.64;44.15;101436.81;4903992;28;124316;-68
2021/05/08 08:07:42;;;;;;;8.68;5.28;;;;;;;14.74;44.01;101432.69;4892371;28;120310;-68
2021/05/08 08:10:10;;;;;;;7.50;5.10;;;;;;;14.83;43.24;101420.69;4885755;28;119818;-68
2021/05/08 08:12:40;;;;;;;8.85;5.47;;;;;;;14.91;43.25;101413.13;4850131;28;123519;-68
2021/05/08 08:15:10;;;;;;;6.95;5.25;;;;;;;15.01;43.15;101425.97;4876317;28;124167;-68
2021/05/08 08:17:37;;;;;;;10.07;5.75;;;;;;;15.08;43.08;101420.22;4886735;28;119426;-68
2021/05/08 08:20:10;;;;;;;8.07;5.38;;;;;;;15.15;42.56;101420.75;4874245;28;119686;-68
2021/05/08 08:22:38;;;;;;;8.88;5.53;;;;;;;15.22;42.35;101410.59;4877784;28;124226;-68
2021/05/08 08:25:06;;;;;;;8.55;5.70;;;;;;;15.27;42.11;101414.72;4915928;23;124450;-64
2021/05/08 08:27:33;;;;;;;7.68;5.43;;;;;;;15.32;41.66;101406.47;4925049;28;120321;-66
2021/05/08 08:30:00;;;;;;;9.95;5.65;;;;;;;15.36;41.58;101416.88;4929279;28;120149;-67
2021/05/08 08:32:26;;;;;;;10.63;5.40;;;;;;;15.42;41.45;101404.16;4912214;28;124539;-66
2021/05/08 08:34:54;;;;;;;7.82;6.00;;;;;;;15.46;41.56;101408.34;4918707;28;123947;-66
2021/05/08 08:37:21;;;;;;;8.10;5.78;;;;;;;15.51;41.56;101395.63;4927169;28;120009;-66
2021/05/08 08:39:48;;;;;;;8.68;5.80;;;;;;;15.58;41.30;101407.69;4927424;28;119294;-67
2021/05/08 08:42:15;;;;;;;9.15;6.07;;;;;;;15.62;41.24;101393.19;4920408;28;124216;-66
2021/05/08 08:44:42;;;;;;;9.02;5.57;;;;;;;15.69;41.19;101394.56;4922718;28;124088;-66
2021/05/08 08:47:30;;;;;;;7.97;5.45;;;;;;;15.75;41.08;101388.91;4906539;28;120113;-66
2021/05/08 08:50:12;;;;;;;7.70;5.18;;;;;;;15.85;41.06;101383.03;4897069;28;118629;-67
2021/05/08 08:52:39;;;;;;;;;;;;;;;15.94;41.78;101382.47;4914610;28;123842;-66
2021/05/08 08:55:07;;;;;;;9.02;5.35;;;;;;;16.06;41.21;101376.41;4918635;28;124115;-67
2021/05/08 08:57:39;;;;;;;8.30;5.13;;;;;;;16.15;41.15;101373.19;4931114;28;120010;-66
2021/05/08 09:00:08;;;;;;;9.48;5.32;;;;;;;16.23;41.07;101372.72;4913396;28;119441;-66
2021/05/08 09:02:36;;;;;;;9.05;5.40;;;;;;;16.30;40.65;101362.53;4914384;28;123401;-66
2021/05/08 09:05:07;;;;;;;7.53;5.03;;;;;;;16.36;40.65;101362.13;4929383;28;124420;-66
2021/05/08 09:07:35;;;;;;;8.57;5.18;;;;;;;16.42;40.01;101361.75;4891870;28;119207;-67
2021/05/08 09:10:05;;;;;;;6.95;4.75;;;;;;;16.47;39.82;101359.66;4920819;28;119161;-67
2021/05/08 09:12:59;;;;;;;7.63;4.53;;;;;;;16.52;39.95;101362.06;4920354;28;124424;-66
2021/05/08 09:15:38;;;;;;;10.20;5.40;;;;;;;16.57;39.90;101353.75;4924555;28;124521;-66
2021/05/08 09:18:07;;;;;;;7.45;4.70;;;;;;;16.63;39.97;101350.69;4924521;28;119744;-66
2021/05/08 09:20:50;;;;;;;9.55;4.70;;;;;;;16.71;40.21;101348.41;4925500;28;119957;-66
2021/05/08 09:23:22;;;;;;;8.48;4.97;;;;;;;16.82;39.82;101343.28;4924596;28;124169;-66
2021/05/08 09:26:04;;;;;;;9.05;5.22;;;;;;;16.95;39.97;101337.13;4925401;28;126639;-66
2021/05/08 09:28:37;;;;;;;8.75;4.85;;;;;;;17.11;39.96;101332.50;4917846;28;119686;-66
2021/05/08 09:31:06;;;;;;;8.88;4.80;;;;;;;17.26;39.87;101326.16;4928223;28;119755;-67
2021/05/08 09:33:33;;;;;;;7.82;5.00;;;;;;;17.42;39.56;101331.38;4918171;28;124857;-66
2021/05/08 09:36:11;;;;;;;7.50;4.78;;;;;;;17.57;39.24;101324.13;4902074;28;122706;-74
2021/05/08 09:38:40;;;;;;;8.30;4.78;;;;;;;17.70;39.11;101330.38;4915332;28;119785;-74
2021/05/08 09:41:09;;;;;;;9.73;4.75;;;;;;;17.83;39.24;101318.84;4922038;28;120208;-74
2021/05/08 09:43:37;;;;;;;9.70;4.65;;;;;;;17.94;38.80;101316.31;4902495;28;124688;-74
2021/05/08 09:46:06;;;;;;;7.30;4.80;;;;;;;18.01;38.44;101312.25;4909259;28;123388;-74
2021/05/08 09:48:35;;;;;;;10.60;4.88;;;;;;;18.08;38.20;101308.19;4928337;28;119447;-74
2021/05/08 09:51:17;;;;;;;7.75;4.68;;;;;;;18.15;38.53;101305.06;4927889;28;118920;-73
2021/05/08 09:53:44;;;;;;;7.20;4.63;;;;;;;18.23;38.14;101302.69;4921027;28;124333;-74
2021/05/08 09:56:34;;;;;;;7.03;4.88;;;;;;;18.25;37.95;101303.44;4909467;28;124303;-74
2021/05/08 10:02:01;;;;;;;8.18;4.10;;;;;;;18.26;37.67;101302.50;4927915;28;119222;-74
2021/05/08 10:04:32;;;;;;;7.63;4.30;;;;;;;18.25;37.46;101298.09;4911287;28;124172;-74
2021/05/08 10:07:07;;;;;;;6.75;4.60;;;;;;;18.25;37.07;101298.09;4930581;28;124891;-74
2021/05/08 10:09:35;;;;;;;7.40;4.40;;;;;;;18.24;37.23;101293.72;4920977;28;120629;-74
2021/05/08 10:12:07;;;;;;;9.52;4.60;;;;;;;18.25;37.48;101282.00;4923169;28;119987;-74
2021/05/08 10:14:36;;;;;;;10.13;4.72;;;;;;;18.27;37.60;101280.06;4912822;28;124730;-74
2021/05/08 10:17:25;;;;;;;7.43;4.60;;;;;;;18.29;37.57;101288.88;4901586;28;124173;-74
2021/05/08 10:20:04;;;;;;;5.88;4.25;;;;;;;18.33;37.14;101285.03;4891170;28;118488;-74
2021/05/08 10:22:34;;;;;;;8.43;4.25;;;;;;;18.35;36.91;101288.44;4904683;28;119259;-74
2021/05/08 10:25:04;;;;;;;6.80;4.25;;;;;;;18.37;36.62;101275.78;4930784;28;124539;-74
2021/05/08 10:27:30;;;;;;;5.90;3.95;;;;;;;18.38;36.49;101288.22;4909520;28;124447;-74
2021/05/08 10:29:58;;;;;;;7.22;3.33;;;;;;;18.38;36.55;101271.28;4926312;28;119585;-66
2021/05/08 10:32:25;;;;;;;5.63;3.03;;;;;;;18.38;36.40;101274.81;4922038;28;118911;-66
2021/05/08 10:35:01;;;;;;;5.15;4.00;;;;;;;18.38;36.33;101272.13;4917641;28;124804;-66
2021/05/08 10:37:30;;;;;;;8.00;3.90;;;;;;;18.39;35.99;101268.47;4893983;28;123670;-66
2021/05/08 10:40:03;;;;;;;8.13;3.40;;;;;;;18.40;36.24;101254.13;4911117;28;119430;-66
2021/05/08 10:42:49;;;;;;;11.77;2.97;;;;;;;18.40;36.33;101267.53;4919275;28;119296;-66
2021/05/08 10:45:19;;;;;;;5.35;2.88;;;;;;;18.40;36.26;101259.50;4915261;28;124818;-66
2021/05/08 10:47:56;;;;;;;4.85;2.92;;;;;;;18.38;36.31;101255.19;4911923;28;125122;-66
2021/05/08 10:50:42;;;;;;;5.78;2.20;;;;;;;18.36;36.88;101251.75;4906218;28;119648;-66
2021/05/08 10:53:11;;;;;;;2.90;2.10;;;;;;;18.35;36.47;101250.91;4921677;28;119216;-66
2021/05/08 10:55:48;;;;;;;4.90;2.33;;;;;;;18.31;36.40;101248.53;4912150;28;124169;-66
2021/05/08 10:58:15;;;;;;;5.35;2.00;;;;;;;18.24;36.46;101238.25;4920428;28;124136;-66
2021/05/08 11:00:45;;;;;;;3.42;2.30;;;;;;;18.19;36.68;101244.91;4899727;28;119577;-66
2021/05/08 11:03:12;;;;;;;2.75;2.30;;;;;;;18.15;36.88;101254.13;4933540;28;120466;-66
2021/05/08 11:05:52;;;;;;;4.97;2.33;;;;;;;18.09;37.29;101242.88;4933162;28;124642;-66
2021/05/08 11:08:24;;;;;;;3.75;2.50;;;;;;;18.02;37.46;101243.41;4922645;28;124271;-66
2021/05/08 11:10:53;;;;;;;5.82;2.72;;;;;;;17.95;37.76;101234.09;4913548;28;119446;-66
2021/05/08 11:13:21;;;;;;;6.10;2.97;;;;;;;17.86;38.29;101235.59;4914745;28;119793;-66
2021/05/08 11:15:54;;;;;;;3.10;2.60;;;;;;;17.77;38.84;101244.25;4911362;28;124760;-65
2021/05/08 11:18:44;;;;;;;3.95;2.60;;;;;;;17.70;39.14;101244.63;4918330;28;124133;-66
2021/05/08 11:21:15;;;;;;;6.25;2.80;;;;;;;17.66;39.41;101237.78;4922044;28;118597;-65
2021/05/08 11:23:46;;;;;;;5.05;2.78;;;;;;;17.60;40.09;101227.50;4910529;28;118533;-65
2021/05/08 11:26:25;;;;;;;4.00;2.70;;;;;;;17.57;40.32;101227.69;4908189;28;124122;-65